createdAt,value
2018-12-02T00:00:27.777Z,71.80
2018-12-02T00:02:56.270Z,71.70
2018-12-02T00:05:25.092Z,71.60
2018-12-02T00:07:59.512Z,71.60
2018-12-02T00:10:27.873Z,71.60
2018-12-02T00:12:56.263Z,71.80
2018-12-02T00:15:28.429Z,71.80
2018-12-02T00:17:58.838Z,71.90
2018-12-02T00:20:27.167Z,72.00
2018-12-02T00:22:55.617Z,71.90
2018-12-02T00:25:24.029Z,71.90
2018-12-02T00:27:57.543Z,72.00
2018-12-02T00:30:29.440Z,72.00
2018-12-02T00:32:58.021Z,72.10
2018-12-02T00:35:26.413Z,72.20
2018-12-02T00:37:58.880Z,72.40
2018-12-02T00:40:27.240Z,72.50
2018-12-02T00:42:56.478Z,72.60
2018-12-02T00:45:26.664Z,72.70
2018-12-02T00:47:55.042Z,72.60
2018-12-02T00:50:23.405Z,72.70
2018-12-02T00:52:53.623Z,72.70
2018-12-02T00:56:30.296Z,72.70
2018-12-02T00:58:58.824Z,72.60
2018-12-02T01:01:27.153Z,72.60
2018-12-02T01:03:55.561Z,72.70
2018-12-02T01:06:23.885Z,72.70
2018-12-02T01:08:52.385Z,72.60
2018-12-02T01:11:20.711Z,72.60
2018-12-02T01:13:49.031Z,72.70
2018-12-02T01:16:17.392Z,72.70
2018-12-02T01:18:45.739Z,72.70
2018-12-02T01:21:14.064Z,72.80
2018-12-02T01:23:42.452Z,72.80
2018-12-02T01:26:10.778Z,73.00
2018-12-02T01:28:39.104Z,73.10
2018-12-02T01:31:07.427Z,73.20
2018-12-02T01:33:35.743Z,73.40
2018-12-02T01:36:04.164Z,73.60
2018-12-02T01:38:33.349Z,73.70
2018-12-02T01:41:01.708Z,73.60
2018-12-02T01:43:30.089Z,73.80
2018-12-02T01:45:58.440Z,73.90
2018-12-02T01:48:26.795Z,73.90
2018-12-02T01:50:55.105Z,73.90
2018-12-02T01:53:23.420Z,74.00
2018-12-02T01:55:51.738Z,74.10
2018-12-02T01:58:20.062Z,74.10
2018-12-02T02:00:48.383Z,74.20
2018-12-02T02:03:16.745Z,74.30
2018-12-02T02:05:45.137Z,74.40
2018-12-02T02:08:13.523Z,74.70
2018-12-02T02:10:41.883Z,74.90
2018-12-02T02:13:10.291Z,75.00
2018-12-02T02:15:38.643Z,75.10
2018-12-02T02:18:06.969Z,75.20
2018-12-02T02:20:35.280Z,75.20
2018-12-02T02:23:03.707Z,75.20
2018-12-02T02:25:32.025Z,75.10
2018-12-02T02:28:00.383Z,75.10
2018-12-02T02:30:29.575Z,75.00
2018-12-02T02:32:57.984Z,74.90
2018-12-02T02:35:26.340Z,75.00
2018-12-02T02:37:55.708Z,75.10
2018-12-02T02:40:27.059Z,75.20
2018-12-02T02:42:55.380Z,75.30
2018-12-02T02:45:23.747Z,75.40
2018-12-02T02:47:52.102Z,75.60
2018-12-02T02:50:21.187Z,75.60
2018-12-02T02:52:51.459Z,75.60
2018-12-02T02:55:19.783Z,75.60
2018-12-02T02:57:48.149Z,75.60
2018-12-02T03:00:19.410Z,75.60
2018-12-02T03:02:47.807Z,75.60
2018-12-02T03:05:16.580Z,75.70
2018-12-02T03:07:44.945Z,75.60
2018-12-02T03:10:17.172Z,75.50
2018-12-02T03:12:48.102Z,75.40
2018-12-02T03:15:17.276Z,75.30
2018-12-02T03:17:45.667Z,75.10
2018-12-02T03:20:14.811Z,74.90
2018-12-02T03:22:44.076Z,74.90
2018-12-02T03:25:15.303Z,74.90
2018-12-02T03:27:43.734Z,74.80
2018-12-02T03:30:14.804Z,74.70
2018-12-02T03:32:43.245Z,74.60
2018-12-02T03:35:13.445Z,74.60
2018-12-02T03:37:41.910Z,74.50
2018-12-02T03:40:13.252Z,74.50
2018-12-02T03:42:41.668Z,74.50
2018-12-02T03:45:13.719Z,74.70
2018-12-02T03:47:42.080Z,74.90
2018-12-02T03:50:17.484Z,75.10
2018-12-02T03:52:41.985Z,75.40
2018-12-02T03:55:10.429Z,75.60
2018-12-02T03:57:38.807Z,75.80
2018-12-02T04:00:15.364Z,75.80
2018-12-02T04:02:43.782Z,75.80
2018-12-02T04:05:13.144Z,75.70
2018-12-02T04:07:41.481Z,75.70
2018-12-02T04:10:11.821Z,75.60
2018-12-02T04:12:40.542Z,75.60
2018-12-02T04:15:14.406Z,75.60
2018-12-02T04:17:43.177Z,75.60
2018-12-02T04:20:12.354Z,75.60
2018-12-02T04:22:40.741Z,75.60
2018-12-02T04:25:13.012Z,75.50
2018-12-02T04:27:41.399Z,75.50
2018-12-02T04:30:12.626Z,75.50
2018-12-02T04:32:41.003Z,75.50
2018-12-02T04:35:14.208Z,75.50
2018-12-02T04:37:42.533Z,75.70
2018-12-02T04:40:11.785Z,75.80
2018-12-02T04:42:43.064Z,75.90
2018-12-02T04:45:12.391Z,76.00
2018-12-02T04:47:40.825Z,76.10
2018-12-02T04:50:10.636Z,76.30
2018-12-02T04:52:38.977Z,76.10
2018-12-02T04:55:08.044Z,76.00
2018-12-02T04:57:36.429Z,75.90
2018-12-02T05:00:20.233Z,75.70
2018-12-02T05:02:49.684Z,75.60
2018-12-02T05:05:19.945Z,75.50
2018-12-02T05:07:48.341Z,75.50
2018-12-02T05:10:17.600Z,75.70
2018-12-02T05:12:45.996Z,75.80
2018-12-02T05:15:16.040Z,75.90
2018-12-02T05:17:44.412Z,76.00
2018-12-02T05:20:13.634Z,76.00
2018-12-02T05:22:42.028Z,76.00
2018-12-02T05:25:17.387Z,76.20
2018-12-02T05:27:42.703Z,76.20
2018-12-02T05:30:11.900Z,76.30
2018-12-02T05:32:40.404Z,76.40
2018-12-02T05:35:09.610Z,76.50
2018-12-02T05:37:37.928Z,76.50
2018-12-02T05:40:12.958Z,76.40
2018-12-02T05:42:41.393Z,76.40
2018-12-02T05:45:11.628Z,76.30
2018-12-02T05:47:40.007Z,76.30
2018-12-02T05:50:15.956Z,76.40
2018-12-02T05:52:45.172Z,76.30
2018-12-02T05:55:14.676Z,76.30
2018-12-02T05:57:43.113Z,76.40
2018-12-02T06:00:14.839Z,76.50
2018-12-02T06:02:43.143Z,76.50
2018-12-02T06:05:11.835Z,76.60
2018-12-02T06:07:40.246Z,76.60
2018-12-02T06:10:09.956Z,76.70
2018-12-02T06:12:38.304Z,76.70
2018-12-02T06:15:09.969Z,76.60
2018-12-02T06:17:38.573Z,76.40
2018-12-02T06:20:11.316Z,76.20
2018-12-02T06:22:39.666Z,76.20
2018-12-02T06:25:09.029Z,76.10
2018-12-02T06:27:37.732Z,76.10
2018-12-02T06:30:12.403Z,76.10
2018-12-02T06:32:40.720Z,76.10
2018-12-02T06:35:10.280Z,76.10
2018-12-02T06:37:38.624Z,76.00
2018-12-02T06:40:21.604Z,75.90
2018-12-02T06:42:50.128Z,75.90
2018-12-02T06:45:18.856Z,75.80
2018-12-02T06:47:47.440Z,75.80
2018-12-02T06:50:20.460Z,75.80
2018-12-02T06:52:48.949Z,75.70
2018-12-02T06:55:21.866Z,75.60
2018-12-02T06:57:54.540Z,75.60
2018-12-02T07:00:40.692Z,75.50
2018-12-02T07:03:23.472Z,75.40
2018-12-02T07:05:51.896Z,75.30
2018-12-02T07:08:21.878Z,75.20
2018-12-02T07:10:50.220Z,75.10
2018-12-02T07:13:18.544Z,75.00
2018-12-02T07:15:46.912Z,74.80
2018-12-02T07:18:19.514Z,74.70
2018-12-02T07:20:49.554Z,74.50
2018-12-02T07:23:21.534Z,73.90
2018-12-02T07:25:51.205Z,59.50
2018-12-02T07:28:19.525Z,57.80
2018-12-02T07:30:47.878Z,55.30
2018-12-02T07:33:16.253Z,54.90
2018-12-02T07:36:00.396Z,51.70
2018-12-02T07:38:48.529Z,51.40
2018-12-02T07:41:16.956Z,51.30
2018-12-02T07:43:45.320Z,51.00
2018-12-02T07:46:13.668Z,50.60
2018-12-02T07:48:42.004Z,51.00
2018-12-02T07:51:10.371Z,50.60
2018-12-02T07:53:38.794Z,51.90
2018-12-02T07:56:07.201Z,52.40
2018-12-02T07:58:35.544Z,52.30
2018-12-02T08:01:03.904Z,53.00
2018-12-02T08:03:32.329Z,53.00
2018-12-02T08:06:00.644Z,51.90
2018-12-02T08:08:29.024Z,51.70
2018-12-02T08:10:57.349Z,51.60
2018-12-02T08:13:25.741Z,51.30
2018-12-02T08:15:54.139Z,51.00
2018-12-02T08:18:22.517Z,50.90
2018-12-02T08:20:50.864Z,50.40
2018-12-02T08:23:19.278Z,50.60
2018-12-02T08:25:47.675Z,50.50
2018-12-02T08:28:16.024Z,50.80
2018-12-02T08:30:44.392Z,50.50
2018-12-02T08:33:12.812Z,50.50
2018-12-02T08:35:41.204Z,51.50
2018-12-02T08:38:11.084Z,52.50
2018-12-02T08:40:39.532Z,52.60
2018-12-02T08:43:08.385Z,53.40
2018-12-02T08:45:38.010Z,54.10
2018-12-02T08:48:05.364Z,55.70
2018-12-02T08:50:33.744Z,56.30
2018-12-02T08:53:02.136Z,59.80
2018-12-02T08:55:30.540Z,60.10
2018-12-02T08:57:58.922Z,60.30
2018-12-02T09:00:27.293Z,60.90
2018-12-02T09:02:57.682Z,61.40
2018-12-02T09:05:26.027Z,61.60
2018-12-02T09:07:55.622Z,62.20
2018-12-02T09:10:25.161Z,62.60
2018-12-02T09:12:56.628Z,63.00
2018-12-02T09:15:24.988Z,63.40
2018-12-02T09:17:53.351Z,63.50
2018-12-02T09:20:27.685Z,64.00
2018-12-02T09:22:56.095Z,64.10
2018-12-02T09:25:24.438Z,64.00
2018-12-02T09:27:52.835Z,64.20
2018-12-02T09:30:22.480Z,64.50
2018-12-02T09:32:51.273Z,64.70
2018-12-02T09:35:19.663Z,64.60
2018-12-02T09:37:48.102Z,64.90
2018-12-02T09:40:16.781Z,65.20
2018-12-02T09:42:50.070Z,65.40
2018-12-02T09:45:21.471Z,65.60
2018-12-02T09:47:49.938Z,65.80
2018-12-02T09:50:18.343Z,65.90
2018-12-02T09:52:47.095Z,66.00
2018-12-02T09:55:22.475Z,66.00
2018-12-02T09:57:51.300Z,66.00
2018-12-02T10:00:20.458Z,66.00
2018-12-02T10:02:48.867Z,65.80
2018-12-02T10:05:17.306Z,65.70
2018-12-02T10:07:45.672Z,65.70
2018-12-02T10:10:22.470Z,65.70
2018-12-02T10:13:05.830Z,65.60
2018-12-02T10:15:34.237Z,65.50
2018-12-02T10:18:02.653Z,65.40
2018-12-02T10:20:31.068Z,65.50
2018-12-02T10:22:59.428Z,65.20
2018-12-02T10:25:27.790Z,65.30
2018-12-02T10:27:56.155Z,65.30
2018-12-02T10:30:25.136Z,65.20
2018-12-02T10:32:54.402Z,65.30
2018-12-02T10:35:23.066Z,65.30
2018-12-02T10:37:51.940Z,65.30
2018-12-02T10:40:23.178Z,65.50
2018-12-02T10:42:51.653Z,65.60
2018-12-02T10:45:23.740Z,65.80
2018-12-02T10:47:53.989Z,65.90
2018-12-02T10:50:26.243Z,66.00
2018-12-02T10:52:55.770Z,65.90
2018-12-02T10:55:32.927Z,65.80
2018-12-02T10:58:01.692Z,65.50
2018-12-02T11:00:35.520Z,65.20
2018-12-02T11:03:03.927Z,64.90
2018-12-02T11:05:32.285Z,64.80
2018-12-02T11:08:00.681Z,64.80
2018-12-02T11:10:29.147Z,64.60
2018-12-02T11:12:57.598Z,64.40
2018-12-02T11:15:25.933Z,64.10
2018-12-02T11:17:54.305Z,63.90
2018-12-02T11:20:22.701Z,63.40
2018-12-02T11:22:51.060Z,62.90
2018-12-02T11:25:19.440Z,62.50
2018-12-02T11:27:47.782Z,62.30
2018-12-02T11:30:16.949Z,62.10
2018-12-02T11:32:47.064Z,61.90
2018-12-02T11:35:16.461Z,61.70
2018-12-02T11:37:45.072Z,61.50
2018-12-02T11:40:15.643Z,61.30
2018-12-02T11:42:44.152Z,61.00
2018-12-02T11:45:13.398Z,60.60
2018-12-02T11:47:42.652Z,60.30
2018-12-02T11:50:13.060Z,60.00
2018-12-02T11:52:41.446Z,59.90
2018-12-02T11:55:10.836Z,59.60
2018-12-02T11:57:40.233Z,59.40
2018-12-02T12:00:15.392Z,59.20
2018-12-02T12:02:43.741Z,59.10
2018-12-02T12:05:12.310Z,59.00
2018-12-02T12:07:41.311Z,58.80
2018-12-02T12:10:21.142Z,58.70
2018-12-02T12:12:50.442Z,58.50
2018-12-02T12:15:20.296Z,58.50
2018-12-02T12:17:48.822Z,58.30
2018-12-02T12:20:21.328Z,58.30
2018-12-02T12:22:49.821Z,58.20
2018-12-02T12:25:18.191Z,58.20
2018-12-02T12:27:46.596Z,58.30
2018-12-02T12:30:21.473Z,58.30
2018-12-02T12:32:51.893Z,58.50
2018-12-02T12:35:20.397Z,58.50
2018-12-02T12:37:48.799Z,58.60
2018-12-02T12:40:18.242Z,58.60
2018-12-02T12:42:49.309Z,58.80
2018-12-02T12:45:19.289Z,58.80
2018-12-02T12:47:47.672Z,58.70
2018-12-02T12:50:16.355Z,58.60
2018-12-02T12:52:44.977Z,58.60
2018-12-02T12:55:15.340Z,58.70
2018-12-02T12:57:43.903Z,58.70
2018-12-02T13:00:18.276Z,58.50
2018-12-02T13:02:46.900Z,58.60
2018-12-02T13:05:17.432Z,58.60
2018-12-02T13:07:45.811Z,58.50
2018-12-02T13:10:15.128Z,58.30
2018-12-02T13:12:43.576Z,58.30
2018-12-02T13:15:16.401Z,58.40
2018-12-02T13:18:03.933Z,58.40
2018-12-02T13:20:33.916Z,58.50
2018-12-02T13:23:02.220Z,58.60
2018-12-02T13:25:30.596Z,58.80
2018-12-02T13:27:59.014Z,58.90
2018-12-02T13:30:27.389Z,59.00
2018-12-02T13:32:55.790Z,59.10
2018-12-02T13:35:24.513Z,59.20
2018-12-02T13:37:52.859Z,59.40
2018-12-02T13:40:22.051Z,59.50
2018-12-02T13:42:59.629Z,59.70
2018-12-02T13:45:28.905Z,60.00
2018-12-02T13:47:57.354Z,60.30
2018-12-02T13:50:25.764Z,60.50
2018-12-02T13:52:54.957Z,60.80
2018-12-02T13:55:25.539Z,61.00
2018-12-02T13:57:53.933Z,61.10
2018-12-02T14:00:24.205Z,61.20
2018-12-02T14:02:55.647Z,61.20
2018-12-02T14:05:24.312Z,61.30
2018-12-02T14:07:52.780Z,61.50
2018-12-02T14:10:21.146Z,61.70
2018-12-02T14:12:54.812Z,61.80
2018-12-02T14:15:39.211Z,62.10
2018-12-02T14:18:27.954Z,62.40
2018-12-02T14:20:56.293Z,62.70
2018-12-02T14:23:24.880Z,63.00
2018-12-02T14:25:54.528Z,63.40
2018-12-02T14:28:34.296Z,63.80
2018-12-02T14:31:02.669Z,64.10
2018-12-02T14:33:35.801Z,64.00
2018-12-02T14:36:00.059Z,63.30
2018-12-02T14:38:28.432Z,63.00
2018-12-02T14:41:03.440Z,62.30
2018-12-02T14:43:31.789Z,61.90
2018-12-02T14:46:00.160Z,61.90
2018-12-02T14:48:28.613Z,61.70
2018-12-02T14:50:56.957Z,61.80
2018-12-02T14:53:25.349Z,62.00
2018-12-02T14:55:53.745Z,62.30
2018-12-02T14:58:22.127Z,62.70
2018-12-02T15:00:50.638Z,63.00
2018-12-02T15:03:19.025Z,63.40
2018-12-02T15:05:47.440Z,63.90
2018-12-02T15:08:16.269Z,64.40
2018-12-02T15:10:44.748Z,64.90
2018-12-02T15:13:13.154Z,65.30
2018-12-02T15:15:41.553Z,65.80
2018-12-02T15:18:09.906Z,66.30
2018-12-02T15:20:38.304Z,66.70
2018-12-02T15:23:06.971Z,67.20
2018-12-02T15:25:35.463Z,68.00
2018-12-02T15:28:03.898Z,68.80
2018-12-02T15:30:32.210Z,69.30
2018-12-02T15:33:00.547Z,69.60
2018-12-02T15:35:29.060Z,70.20
2018-12-02T15:37:57.428Z,70.60
2018-12-02T15:40:25.772Z,71.20
2018-12-02T15:42:54.412Z,71.40
2018-12-02T15:45:23.123Z,71.60
2018-12-02T15:47:51.559Z,71.80
2018-12-02T15:50:21.204Z,71.90
2018-12-02T15:52:49.891Z,71.90
2018-12-02T15:55:26.366Z,72.00
2018-12-02T15:57:55.059Z,72.30
2018-12-02T16:00:28.282Z,72.60
2018-12-02T16:02:56.674Z,72.90
2018-12-02T16:05:25.163Z,73.20
2018-12-02T16:07:53.508Z,73.40
2018-12-02T16:10:21.876Z,73.60
2018-12-02T16:12:51.317Z,73.60
2018-12-02T16:15:23.849Z,73.60
2018-12-02T16:17:52.512Z,73.60
2018-12-02T16:20:28.111Z,73.60
2018-12-02T16:22:56.496Z,73.70
2018-12-02T16:25:24.878Z,73.70
2018-12-02T16:27:53.632Z,73.70
2018-12-02T16:30:22.040Z,73.60
2018-12-02T16:32:54.214Z,73.40
2018-12-02T16:35:23.769Z,73.30
2018-12-02T16:37:53.185Z,73.20
2018-12-02T16:40:22.648Z,73.20
2018-12-02T16:42:52.124Z,73.30
2018-12-02T16:45:20.588Z,73.60
2018-12-02T16:47:50.248Z,74.40
2018-12-02T16:50:24.641Z,75.30
2018-12-02T16:52:54.250Z,75.80
2018-12-02T16:55:24.531Z,76.20
2018-12-02T16:57:58.290Z,76.70
2018-12-02T17:00:30.572Z,77.00
2018-12-02T17:02:58.947Z,77.50
2018-12-02T17:05:27.361Z,77.70
2018-12-02T17:07:55.733Z,77.90
2018-12-02T17:10:24.394Z,77.80
2018-12-02T17:12:52.795Z,77.80
2018-12-02T17:15:21.169Z,77.80
2018-12-02T17:17:49.708Z,77.70
2018-12-02T17:20:18.172Z,77.50
2018-12-02T17:22:46.824Z,77.40
2018-12-02T17:25:15.381Z,77.60
2018-12-02T17:27:50.324Z,77.70
2018-12-02T17:30:26.633Z,77.80
2018-12-02T17:32:55.635Z,77.80
2018-12-02T17:35:24.019Z,78.00
2018-12-02T17:37:52.395Z,78.10
2018-12-02T17:40:22.063Z,78.10
2018-12-02T17:42:50.547Z,78.20
2018-12-02T17:45:19.037Z,78.20
2018-12-02T17:47:49.060Z,78.20
2018-12-02T17:50:18.476Z,78.20
2018-12-02T17:52:47.968Z,78.40
2018-12-02T17:55:16.409Z,78.60
2018-12-02T17:57:44.816Z,78.70
2018-12-02T18:00:22.202Z,78.90
2018-12-02T18:02:51.063Z,79.00
2018-12-02T18:10:12.440Z,79.10
2018-12-02T18:12:41.352Z,79.10
2018-12-02T18:15:11.892Z,79.10
2018-12-02T18:17:40.382Z,79.30
2018-12-02T18:20:11.058Z,79.40
2018-12-02T18:22:39.532Z,79.60
2018-12-02T18:25:10.197Z,79.80
2018-12-02T18:27:38.621Z,80.00
2018-12-02T18:30:23.329Z,80.10
2018-12-02T18:32:53.071Z,80.20
2018-12-02T18:35:43.520Z,80.40
2018-12-02T18:38:16.168Z,80.60
2018-12-02T18:40:47.848Z,80.70
2018-12-02T18:43:16.200Z,80.80
2018-12-02T18:45:44.584Z,80.70
2018-12-02T18:48:12.954Z,80.60
2018-12-02T18:50:41.288Z,80.40
2018-12-02T18:53:09.662Z,80.20
2018-12-02T18:55:38.012Z,80.10
2018-12-02T18:58:06.387Z,80.00
2018-12-02T19:00:40.273Z,79.90
2018-12-02T19:03:08.697Z,79.90
2018-12-02T19:05:37.073Z,80.00
2018-12-02T19:08:05.816Z,80.00
2018-12-02T19:10:34.255Z,80.00
2018-12-02T19:13:02.866Z,80.00
2018-12-02T19:15:31.280Z,80.00
2018-12-02T19:17:59.802Z,80.00
2018-12-02T19:20:29.365Z,80.00
2018-12-02T19:23:00.057Z,80.00
2018-12-02T19:25:29.338Z,80.10
2018-12-02T19:27:57.817Z,80.10
2018-12-02T19:30:27.000Z,80.10
2018-12-02T19:32:55.390Z,80.10
2018-12-02T19:35:32.967Z,80.10
2018-12-02T19:38:09.005Z,80.20
2018-12-02T19:40:37.855Z,80.10
2018-12-02T19:43:06.348Z,80.20
2018-12-02T19:45:34.739Z,80.20
2018-12-02T19:48:03.108Z,80.30
2018-12-02T19:50:31.444Z,80.20
2018-12-02T19:52:59.779Z,80.10
2018-12-02T19:55:28.184Z,80.10
2018-12-02T19:57:56.581Z,80.00
2018-12-02T20:00:25.630Z,80.00
2018-12-02T20:02:54.467Z,80.10
2018-12-02T20:05:23.316Z,80.20
2018-12-02T20:07:54.126Z,80.30
2018-12-02T20:10:27.222Z,80.40
2018-12-02T20:12:56.592Z,80.50
2018-12-02T20:15:24.952Z,80.60
2018-12-02T20:17:53.324Z,80.70
2018-12-02T20:20:27.109Z,80.70
2018-12-02T20:22:55.509Z,80.90
2018-12-02T20:25:24.773Z,81.20
2018-12-02T20:27:56.776Z,81.40
2018-12-02T20:30:25.189Z,81.40
2018-12-02T20:32:53.582Z,81.50
2018-12-02T20:35:21.910Z,81.40
2018-12-02T20:37:50.259Z,81.30
2018-12-02T20:40:19.814Z,81.10
2018-12-02T20:42:48.793Z,81.10
2018-12-02T20:45:17.672Z,81.00
2018-12-02T20:47:46.046Z,81.00
2018-12-02T20:50:15.489Z,81.00
2018-12-02T20:52:44.020Z,81.00
2018-12-02T20:55:13.697Z,81.00
2018-12-02T20:57:42.085Z,80.90
2018-12-02T21:00:14.567Z,81.00
2018-12-02T21:02:44.267Z,81.10
2018-12-02T21:05:15.234Z,81.10
2018-12-02T21:07:43.644Z,81.10
2018-12-02T21:10:13.979Z,81.50
2018-12-02T21:12:42.375Z,81.80
2018-12-02T21:15:12.989Z,82.00
2018-12-02T21:17:41.427Z,82.20
2018-12-02T21:20:11.324Z,82.50
2018-12-02T21:22:39.774Z,83.00
2018-12-02T21:25:14.598Z,83.10
2018-12-02T21:27:43.162Z,83.30
2018-12-02T21:30:18.512Z,83.50
2018-12-02T21:32:46.904Z,83.70
2018-12-02T21:35:15.480Z,83.90
2018-12-02T21:37:44.140Z,84.10
2018-12-02T21:40:13.620Z,84.30
2018-12-02T21:42:42.105Z,84.50
2018-12-02T21:45:13.322Z,84.50
2018-12-02T21:47:44.872Z,84.60
2018-12-02T21:50:14.859Z,84.60
2018-12-02T21:52:43.240Z,84.70
2018-12-02T21:55:11.624Z,84.50
2018-12-02T21:57:40.125Z,84.40
2018-12-02T22:00:22.237Z,84.40
2018-12-02T22:02:51.569Z,84.30
2018-12-02T22:05:20.218Z,84.20
2018-12-02T22:07:49.421Z,84.20
2018-12-02T22:10:26.804Z,84.20
2018-12-02T22:12:55.184Z,84.40
2018-12-02T22:15:23.597Z,84.40
2018-12-02T22:17:51.980Z,84.50
2018-12-02T22:20:20.373Z,84.60
2018-12-02T22:22:48.768Z,84.70
2018-12-02T22:25:18.068Z,84.80
2018-12-02T22:27:48.352Z,84.80
2018-12-02T22:30:17.633Z,85.10
2018-12-02T22:32:46.038Z,85.30
2018-12-02T22:35:14.976Z,85.50
2018-12-02T22:37:43.973Z,85.70
2018-12-02T22:40:13.709Z,85.80
2018-12-02T22:42:42.136Z,85.90
2018-12-02T22:45:25.990Z,85.90
2018-12-02T22:47:54.440Z,86.00
2018-12-02T22:50:26.568Z,86.10
2018-12-02T22:52:55.923Z,86.00
2018-12-02T22:55:24.362Z,86.10
2018-12-02T22:57:52.737Z,86.10
2018-12-02T23:00:36.120Z,86.20
2018-12-02T23:03:14.223Z,86.30
2018-12-02T23:05:43.592Z,86.50
2018-12-02T23:08:12.051Z,86.60
2018-12-02T23:10:40.437Z,86.60
2018-12-02T23:13:09.408Z,86.50
2018-12-02T23:15:38.615Z,86.20
2018-12-02T23:18:08.050Z,85.90
2018-12-02T23:20:36.907Z,85.70
2018-12-02T23:23:05.419Z,85.50
2018-12-02T23:25:34.145Z,85.40
2018-12-02T23:28:02.525Z,85.50
2018-12-02T23:30:30.916Z,85.60
2018-12-02T23:32:59.254Z,85.80
2018-12-02T23:35:27.652Z,86.00
2018-12-02T23:37:55.979Z,86.20
2018-12-02T23:40:25.307Z,86.50
2018-12-02T23:42:54.571Z,86.50
2018-12-02T23:45:22.932Z,86.50
2018-12-02T23:47:51.288Z,86.50
2018-12-02T23:50:20.978Z,86.50
2018-12-02T23:52:49.481Z,86.40
2018-12-02T23:55:18.783Z,86.20
2018-12-02T23:57:47.292Z,86.10
